• Join FlightAware (Why Join?)
  • Login
  • US Flag 
03:12PM EST


 

Airport Tracker/Info


-or-


 

Live Flight TrackerFlight Track Log ✈ ASA45 ✈ 06-May-2013 ✈ PANC - PABE / BET

Flight Track Log - Related Links

Times and Time Zones

All times are in EDT time to prevent confusion due to time zone crossing. See the ASA45 flight status page for this flight to view local times or setup timezone preferences in your user account.

Time Position Orientation Groundspeed Altitude Reporting Facility
EDT Latitude Longitude Course Direction KTS MPH feet Rate Location/Type
10:55PM 61.2333 -150.2667 270° West 260 299 5,900  Level Anchorage Center
10:57PM 61.2167 -150.5500 263° West 270 311 11,000 2,460 Climbing Anchorage Center
10:58PM 61.1667 -151.1188 270° West  Level FlightAware Approximate
10:58PM 61.2167 -150.7500 270° West 340 391 13,300  Level Anchorage Center
10:59PM 61.1668 -151.3192 270° West  Level FlightAware Approximate
11:00PM 61.1669 -151.5195 270° West  Level FlightAware Approximate
11:00PM 61.2167 -151.1500 270° West 350 403 18,700  Level Anchorage Center
11:01PM 61.2167 -151.3500 270° West 360 414 21,300 2,280 Climbing Anchorage Center
11:02PM 61.2167 -151.5667 270° West 360 414 23,300 2,040 Climbing Anchorage Center
11:03PM 61.2167 -151.7667 270° West 370 426 25,500 1,920 Climbing Anchorage Center
11:04PM 61.2167 -151.9833 270° West 380 437 27,200 2,040 Climbing Anchorage Center
11:05PM 61.2000 -152.2000 261° West 370 426 29,600 2,220 Climbing Anchorage Center
11:06PM 61.2000 -152.4167 270° West 360 414 31,700 1,200 Climbing Anchorage Center
11:07PM 61.2000 -152.6167 270° West 350 403 32,000 120 Climbing Anchorage Center
11:08PM 61.2000 -152.8167 270° West 360 414 32,000  Level Anchorage Center
11:09PM 61.2000 -153.0167 270° West 350 403 32,000  Level Anchorage Center
11:10PM 61.2000 -153.2167 270° West 350 403 32,000  Level Anchorage Center
11:11PM 61.2000 -153.4167 270° West 360 414 32,000  Level Anchorage Center
11:12PM 61.1833 -153.6333 261° West 350 403 32,000  Level Anchorage Center
11:13PM 61.1833 -153.8333 270° West 360 414 32,000  Level Anchorage Center
11:15PM 61.1667 -154.2500 265° West 350 403 32,000  Level Anchorage Center
11:16PM 61.1667 -154.4500 270° West 360 414 32,000  Level Anchorage Center
11:17PM 61.1667 -154.6500 270° West 350 403 32,000  Level Anchorage Center
11:18PM 61.1500 -154.8667 261° West 360 414 32,000  Level Anchorage Center
11:19PM 61.1500 -155.0667 270° West 350 403 32,000  Level Anchorage Center
11:20PM 61.1500 -155.3167 270° West 360 414 32,000  Level Anchorage Center
11:21PM 61.1333 -155.5000 259° West 350 403 32,000  Level Anchorage Center
11:22PM 61.1333 -155.7000 270° West 350 403 32,000  Level Anchorage Center
11:23PM 61.1167 -155.9167 261° West 370 426 32,000  Level Anchorage Center
11:24PM 61.1167 -156.1333 270° West 360 414 32,000  Level Anchorage Center
11:25PM 61.1000 -156.3333 260° West 360 414 32,000  Level Anchorage Center
11:26PM 61.1000 -156.5500 270° West 360 414 32,000  Level Anchorage Center
11:27PM 61.0833 -156.7667 261° West 370 426 32,000  Level Anchorage Center
11:28PM 61.0833 -156.9833 270° West 370 426 32,000  Level Anchorage Center
11:29PM 61.0667 -157.2000 261° West 370 426 32,000  Level Anchorage Center
11:30PM 61.0667 -157.4167 270° West 370 426 32,000  Level Anchorage Center
11:31PM 61.0500 -157.6333 261° West 380 437 32,000  Level Anchorage Center
11:32PM 61.0333 -157.8500 261° West 370 426 32,000  Level Anchorage Center
11:33PM 61.0333 -158.0667 270° West 370 426 32,000  Level Anchorage Center
11:34PM 61.0167 -158.2833 261° West 370 426 32,000  Level Anchorage Center
11:35PM 61.0000 -158.5000 261° West 380 437 32,000  Level Anchorage Center
11:36PM 61.0000 -158.7333 270° West 390 449 32,000  Level Anchorage Center
11:37PM 60.9833 -158.9500 261° West 380 437 32,000 -960 Level Anchorage Center
11:38PM 60.9667 -159.1667 261° West 390 449 30,100 -2,880 Descending Anchorage Center
11:39PM 60.9500 -159.3833 261° West 390 449 26,300 -3,180 Descending Anchorage Center
11:40PM 60.9500 -159.6167 270° West 380 437 23,800 -2,700 Descending Anchorage Center
11:41PM 60.9167 -159.8167 251° West 360 414 21,000 -2,820 Descending Anchorage Center
11:42PM 60.9167 -160.0167 270° West 360 414 18,200 -2,700 Descending Anchorage Center
11:43PM 60.9000 -160.2167 260° West 350 403 15,700 -2,700 Descending Anchorage Center
11:44PM 60.8667 -160.4167 251° West 350 403 12,900 -2,520 Descending Anchorage Center
11:45PM 60.8667 -160.6167 270° West 340 391 10,700 -1,560 Descending Anchorage Center
11:46PM 60.8500 -160.8167 260° West 320 368 9,800 -1,260 Descending Anchorage Center
11:47PM 60.8333 -160.9667 257° West 260 299 8,300 -1,680 Descending Anchorage Center
11:48PM 60.8333 -161.1167 270° West 270 311 6,500 -1,740 Descending Anchorage Center
11:49PM 60.8167 -161.2667 257° West 240 276 4,900 -1,620 Descending Anchorage Center
11:51PM 60.7878 -161.6223 258° West  Level FlightAware Approximate
11:58PM 60.7667 -161.8333 258° West  Level FlightAware Approximate
11:59PM 60.7786 -161.8372 258° West  Level Estimated
12:00AM 60.7786 -161.8372 258° West  Level Estimated
12:01AM 60.7786 -161.8372 258° West  Level Estimated
12:02AM 60.7786 -161.8372 258° West  Level Estimated
12:03AM 60.7786 -161.8372 258° West  Level Estimated